Excelsior, Georgia
Current Conditions -  °F | °C
As of 6:15 AM on Sunday 23 Nov 2014 (Local Time) from KCWV Reporting Station
Moderate Rain Moderate Rain  
Wind Chill: 61°   Ceiling: 600
Heat Index: 61°   Visibility: 5mi
Dew Point: 61°   Wind: 12mph
Humidity: 100%   Direction: 70°ENE
Pressure: 30.06"   Gusts: 17mph
Location:  32.4031°N, 82.0735°W
Report Text: KCWV 231115Z AUTO 07010G15KT 5SM RA OVC006 16/16 A3006 RMK AO2
Loading
Personal Weather Stations






























Interactive Weather Map New forecast layout! Learn more

10-Day Weather Forecast

Advertisements
Track Severe Weather on mobile